createdAt,value
2017-07-02T00:02:27.684Z,89.50
2017-07-02T00:04:56.343Z,89.40
2017-07-02T00:07:24.699Z,89.40
2017-07-02T00:09:53.088Z,89.20
2017-07-02T00:12:21.566Z,89.10
2017-07-02T00:14:50.750Z,88.90
2017-07-02T00:17:20.160Z,88.90
2017-07-02T00:19:50.617Z,88.90
2017-07-02T00:22:19.007Z,88.90
2017-07-02T00:24:49.110Z,88.70
2017-07-02T00:27:18.164Z,88.90
2017-07-02T00:29:47.489Z,88.70
2017-07-02T00:32:21.114Z,88.60
2017-07-02T00:35:00.142Z,88.90
2017-07-02T00:37:28.667Z,88.90
2017-07-02T00:39:57.000Z,88.60
2017-07-02T00:42:25.375Z,88.40
2017-07-02T00:44:53.965Z,88.40
2017-07-02T00:47:22.310Z,88.40
2017-07-02T00:49:54.925Z,88.40
2017-07-02T00:52:24.246Z,88.30
2017-07-02T00:54:52.639Z,88.50
2017-07-02T00:57:21.033Z,88.50
2017-07-02T00:59:49.704Z,88.50
2017-07-02T01:02:18.053Z,88.20
2017-07-02T01:04:46.413Z,88.00
2017-07-02T01:07:14.934Z,87.20
2017-07-02T01:12:36.547Z,86.70
2017-07-02T01:15:04.897Z,86.40
2017-07-02T01:17:33.294Z,86.30
2017-07-02T01:20:06.768Z,86.00
2017-07-02T01:22:35.122Z,85.80
2017-07-02T01:25:06.878Z,85.70
2017-07-02T01:27:36.465Z,85.50
2017-07-02T01:30:04.848Z,85.70
2017-07-02T01:32:33.193Z,85.50
2017-07-02T01:35:01.618Z,85.60
2017-07-02T01:37:30.171Z,85.40
2017-07-02T01:39:58.514Z,85.40
2017-07-02T01:42:27.184Z,85.50
2017-07-02T01:44:55.544Z,85.50
2017-07-02T01:47:23.922Z,85.60
2017-07-02T01:49:52.484Z,85.60
2017-07-02T01:52:20.970Z,85.60
2017-07-02T01:54:49.311Z,85.70
2017-07-02T01:57:17.946Z,86.00
2017-07-02T01:59:46.321Z,86.10
2017-07-02T02:02:27.418Z,86.30
2017-07-02T02:04:55.826Z,86.50
2017-07-02T02:07:24.292Z,86.90
2017-07-02T02:09:53.772Z,87.20
2017-07-02T02:12:22.187Z,87.40
2017-07-02T02:14:50.525Z,87.60
2017-07-02T02:17:18.945Z,88.00
2017-07-02T02:19:47.347Z,88.00
2017-07-02T02:22:15.722Z,88.20
2017-07-02T02:24:44.557Z,88.30
2017-07-02T02:27:13.644Z,88.40
2017-07-02T02:29:42.237Z,88.60
2017-07-02T02:32:11.593Z,88.70
2017-07-02T02:34:40.122Z,88.60
2017-07-02T02:37:08.504Z,88.90
2017-07-02T02:39:37.480Z,88.90
2017-07-02T02:42:05.880Z,88.80
2017-07-02T02:44:34.238Z,89.00
2017-07-02T02:47:02.763Z,88.90
2017-07-02T02:49:31.104Z,89.00
2017-07-02T02:52:06.630Z,89.10
2017-07-02T02:54:34.987Z,89.30
2017-07-02T02:57:03.342Z,89.40
2017-07-02T02:59:31.999Z,89.60
2017-07-02T03:02:01.322Z,89.60
2017-07-02T03:04:29.805Z,89.90
2017-07-02T03:07:08.883Z,90.00
2017-07-02T03:09:37.246Z,90.00
2017-07-02T03:12:05.620Z,90.10
2017-07-02T03:14:34.546Z,90.20
2017-07-02T03:17:03.856Z,90.30
2017-07-02T03:19:32.320Z,90.40
2017-07-02T03:22:01.372Z,90.50
2017-07-02T03:24:29.704Z,90.60
2017-07-02T03:26:58.083Z,90.70
2017-07-02T03:29:26.678Z,90.70
2017-07-02T03:31:55.089Z,90.80
2017-07-02T03:34:23.447Z,90.80
2017-07-02T03:36:53.642Z,90.90
2017-07-02T03:39:22.029Z,90.90
2017-07-02T03:41:50.400Z,91.00
2017-07-02T03:44:18.898Z,91.00
2017-07-02T03:46:47.409Z,91.00
2017-07-02T03:49:15.756Z,91.00
2017-07-02T03:51:44.667Z,91.10
2017-07-02T03:54:14.033Z,91.00
2017-07-02T03:56:42.910Z,91.00
2017-07-02T03:59:11.716Z,91.00
2017-07-02T04:01:40.045Z,90.90
2017-07-02T04:04:08.422Z,90.80
2017-07-02T04:06:37.672Z,90.80
2017-07-02T04:09:06.311Z,90.80
2017-07-02T04:11:34.632Z,90.70
2017-07-02T04:14:03.164Z,90.70
2017-07-02T04:16:31.563Z,90.70
2017-07-02T04:19:00.952Z,90.60
2017-07-02T04:21:30.252Z,90.50
2017-07-02T04:23:58.580Z,90.50
2017-07-02T04:26:28.008Z,90.40
2017-07-02T04:28:56.411Z,90.40
2017-07-02T04:31:24.993Z,90.40
2017-07-02T04:33:53.321Z,90.40
2017-07-02T04:36:22.003Z,90.40
2017-07-02T04:38:50.347Z,90.40
2017-07-02T04:41:18.677Z,90.30
2017-07-02T04:43:47.331Z,90.30
2017-07-02T04:46:15.652Z,90.20
2017-07-02T04:48:43.992Z,90.10
2017-07-02T04:51:12.389Z,89.90
2017-07-02T04:53:40.727Z,89.70
2017-07-02T04:56:10.081Z,89.40
2017-07-02T04:58:39.387Z,89.00
2017-07-02T05:01:07.725Z,88.90
2017-07-02T05:03:41.715Z,88.70
2017-07-02T05:06:10.142Z,88.60
2017-07-02T05:08:38.537Z,88.50
2017-07-02T05:11:07.312Z,88.40
2017-07-02T05:13:35.673Z,88.00
2017-07-02T05:16:04.044Z,87.90
2017-07-02T05:18:32.597Z,87.70
2017-07-02T05:21:00.936Z,87.20
2017-07-02T05:23:29.253Z,87.00
2017-07-02T05:25:57.709Z,86.80
2017-07-02T05:28:26.032Z,86.40
2017-07-02T05:30:54.401Z,86.50
2017-07-02T05:33:33.944Z,86.60
2017-07-02T05:36:03.325Z,87.00
2017-07-02T05:38:32.710Z,87.10
2017-07-02T05:41:01.373Z,87.30
2017-07-02T05:43:29.701Z,87.60
2017-07-02T05:45:58.061Z,87.40
2017-07-02T05:48:26.540Z,87.80
2017-07-02T05:50:54.913Z,87.60
2017-07-02T05:53:23.553Z,87.80
2017-07-02T05:55:52.284Z,87.80
2017-07-02T05:58:20.634Z,88.00
2017-07-02T06:00:49.014Z,88.40
2017-07-02T06:03:17.542Z,88.60
2017-07-02T06:05:48.870Z,89.00
2017-07-02T06:08:17.224Z,89.20
2017-07-02T06:10:46.052Z,89.80
2017-07-02T06:13:14.376Z,89.80
2017-07-02T06:15:42.743Z,89.80
2017-07-02T06:18:11.713Z,89.90
2017-07-02T06:20:40.071Z,90.00
2017-07-02T06:23:08.429Z,89.90
2017-07-02T06:25:37.129Z,90.00
2017-07-02T06:28:06.703Z,90.10
2017-07-02T06:30:35.093Z,90.10
2017-07-02T06:33:03.801Z,90.20
2017-07-02T06:35:33.475Z,90.20
2017-07-02T06:38:01.814Z,90.20
2017-07-02T06:40:31.261Z,90.30
2017-07-02T06:43:01.639Z,90.10
2017-07-02T06:45:30.011Z,90.00
2017-07-02T06:47:58.775Z,89.40
2017-07-02T06:50:27.182Z,89.50
2017-07-02T06:52:56.067Z,88.40
2017-07-02T06:55:30.266Z,88.70
2017-07-02T06:57:58.670Z,88.30
2017-07-02T07:00:27.069Z,88.00
2017-07-02T07:02:55.741Z,88.00
2017-07-02T07:05:24.102Z,87.90
2017-07-02T07:08:04.956Z,87.40
2017-07-02T07:10:33.299Z,86.40
2017-07-02T07:13:01.646Z,86.60
2017-07-02T07:15:31.421Z,86.10
2017-07-02T07:17:59.782Z,85.40
2017-07-02T07:20:28.155Z,85.50
2017-07-02T07:22:57.804Z,85.80
2017-07-02T07:25:26.150Z,85.70
2017-07-02T07:27:54.527Z,85.40
2017-07-02T07:30:23.138Z,85.50
2017-07-02T07:32:51.512Z,85.20
2017-07-02T07:35:19.891Z,85.80
2017-07-02T07:37:49.565Z,87.10
2017-07-02T07:40:17.997Z,87.70
2017-07-02T07:42:46.460Z,85.80
2017-07-02T07:45:15.453Z,84.40
2017-07-02T07:47:43.852Z,86.40
2017-07-02T07:50:12.359Z,88.30
2017-07-02T07:52:41.746Z,89.60
2017-07-02T07:55:11.150Z,89.80
2017-07-02T07:57:39.750Z,90.10
2017-07-02T08:00:08.626Z,90.10
2017-07-02T08:02:37.116Z,90.00
2017-07-02T08:05:05.572Z,90.10
2017-07-02T08:07:34.268Z,90.20
2017-07-02T08:10:02.747Z,89.70
2017-07-02T08:12:31.099Z,89.50
2017-07-02T08:14:59.762Z,88.30
2017-07-02T08:17:28.120Z,87.40
2017-07-02T08:19:56.468Z,86.60
2017-07-02T08:22:28.051Z,85.70
2017-07-02T08:24:57.561Z,86.60
2017-07-02T08:27:26.117Z,87.00
2017-07-02T08:29:55.304Z,84.90
2017-07-02T08:32:25.645Z,85.60
2017-07-02T08:34:54.030Z,84.90
2017-07-02T08:37:22.786Z,86.00
2017-07-02T08:39:52.333Z,85.50
2017-07-02T08:42:21.255Z,86.00
2017-07-02T08:44:49.868Z,85.40
2017-07-02T08:47:18.660Z,85.40
2017-07-02T08:49:47.045Z,85.30
2017-07-02T08:52:15.556Z,85.70
2017-07-02T08:54:44.409Z,84.90
2017-07-02T08:57:13.056Z,85.00
2017-07-02T08:59:41.767Z,85.40
2017-07-02T09:02:10.416Z,85.50
2017-07-02T09:04:39.559Z,85.70
2017-07-02T09:07:13.466Z,85.80
2017-07-02T09:09:42.109Z,85.70
2017-07-02T09:12:10.560Z,86.00
2017-07-02T09:14:40.826Z,86.40
2017-07-02T09:17:09.352Z,86.40
2017-07-02T09:19:40.323Z,86.50
2017-07-02T09:22:09.800Z,85.50
2017-07-02T09:24:38.166Z,85.00
2017-07-02T09:27:06.681Z,85.10
2017-07-02T09:29:35.125Z,85.60
2017-07-02T09:32:03.505Z,86.40
2017-07-02T09:34:31.882Z,87.60
2017-07-02T09:37:00.506Z,88.20
2017-07-02T09:39:36.437Z,89.10
2017-07-02T09:42:06.258Z,89.60
2017-07-02T09:44:34.610Z,89.40
2017-07-02T09:47:02.999Z,88.10
2017-07-02T09:49:31.655Z,87.50
2017-07-02T09:51:59.993Z,85.50
2017-07-02T09:54:28.376Z,83.30
2017-07-02T09:56:57.009Z,84.10
2017-07-02T09:59:25.352Z,83.20
2017-07-02T10:01:53.664Z,82.70
2017-07-02T10:04:22.887Z,83.20
2017-07-02T10:06:51.300Z,83.10
2017-07-02T10:09:19.739Z,83.30
2017-07-02T10:11:48.470Z,82.60
2017-07-02T10:14:16.916Z,81.40
2017-07-02T10:16:45.369Z,82.20
2017-07-02T10:19:13.916Z,83.20
2017-07-02T10:21:42.486Z,83.60
2017-07-02T10:24:11.126Z,83.30
2017-07-02T10:26:40.361Z,82.80
2017-07-02T10:29:08.829Z,82.00
2017-07-02T10:31:37.198Z,81.40
2017-07-02T10:34:06.298Z,82.20
2017-07-02T10:36:34.648Z,82.40
2017-07-02T10:39:03.018Z,81.10
2017-07-02T10:41:31.611Z,78.20
2017-07-02T10:44:01.226Z,76.10
2017-07-02T10:46:29.548Z,71.40
2017-07-02T10:48:58.186Z,69.50
2017-07-02T10:51:26.512Z,68.60
2017-07-02T10:53:54.850Z,69.60
2017-07-02T10:56:23.356Z,69.30
2017-07-02T10:58:51.707Z,68.90
2017-07-02T11:01:21.017Z,66.20
2017-07-02T11:03:49.688Z,65.40
2017-07-02T11:06:18.013Z,62.10
2017-07-02T11:08:46.375Z,60.80
2017-07-02T11:11:15.148Z,62.10
2017-07-02T11:13:45.599Z,62.60
2017-07-02T11:16:14.081Z,63.10
2017-07-02T11:18:43.323Z,60.50
2017-07-02T11:21:11.932Z,61.00
2017-07-02T11:23:40.491Z,59.90
2017-07-02T11:26:09.634Z,58.20
2017-07-02T11:28:40.035Z,58.40
2017-07-02T11:31:08.703Z,60.20
2017-07-02T11:33:37.731Z,61.20
2017-07-02T11:36:09.454Z,61.40
2017-07-02T11:38:38.609Z,58.30
2017-07-02T11:41:07.369Z,57.00
2017-07-02T11:43:35.881Z,55.00
2017-07-02T11:46:04.622Z,56.60
2017-07-02T11:48:32.975Z,57.40
2017-07-02T11:51:01.374Z,57.90
2017-07-02T11:53:30.967Z,58.30
2017-07-02T11:56:03.688Z,58.40
2017-07-02T11:58:32.218Z,58.80
2017-07-02T12:01:09.846Z,60.10
2017-07-02T12:03:38.892Z,61.80
2017-07-02T12:06:07.399Z,59.70
2017-07-02T12:08:35.798Z,57.60
2017-07-02T12:11:04.561Z,57.80
2017-07-02T12:13:32.934Z,56.70
2017-07-02T12:16:01.259Z,57.30
2017-07-02T12:18:29.923Z,57.20
2017-07-02T12:20:58.456Z,57.60
2017-07-02T12:23:26.978Z,57.00
2017-07-02T12:25:55.751Z,58.10
2017-07-02T12:28:24.401Z,58.60
2017-07-02T12:30:53.845Z,59.30
2017-07-02T12:33:22.517Z,59.40
2017-07-02T12:35:52.921Z,58.20
2017-07-02T12:38:21.303Z,58.50
2017-07-02T12:41:07.128Z,59.00
2017-07-02T12:43:37.013Z,60.30
2017-07-02T12:46:05.635Z,62.30
2017-07-02T12:48:34.307Z,63.60
2017-07-02T12:51:03.741Z,63.90
2017-07-02T12:53:32.154Z,63.40
2017-07-02T12:56:01.893Z,63.10
2017-07-02T12:58:32.237Z,63.90
2017-07-02T13:01:00.615Z,64.10
2017-07-02T13:03:29.192Z,64.40
2017-07-02T13:05:58.598Z,63.70
2017-07-02T13:08:26.981Z,63.30
2017-07-02T13:10:55.741Z,62.20
2017-07-02T13:13:24.106Z,61.30
2017-07-02T13:15:52.507Z,60.00
2017-07-02T13:18:21.079Z,58.60
2017-07-02T13:20:49.534Z,57.30
2017-07-02T13:23:17.905Z,58.40
2017-07-02T13:25:47.084Z,59.80
2017-07-02T13:28:15.587Z,57.90
2017-07-02T13:30:43.983Z,54.40
2017-07-02T13:33:12.581Z,54.40
2017-07-02T13:35:42.084Z,54.20
2017-07-02T13:38:10.537Z,52.40
2017-07-02T13:40:39.252Z,51.80
2017-07-02T13:43:07.915Z,52.90
2017-07-02T13:45:36.627Z,53.80
2017-07-02T13:48:05.787Z,53.60
2017-07-02T13:50:34.144Z,54.60
2017-07-02T13:53:02.488Z,54.10
2017-07-02T13:55:36.980Z,55.40
2017-07-02T13:58:06.752Z,55.90
2017-07-02T14:00:35.171Z,53.90
2017-07-02T14:03:04.841Z,52.80
2017-07-02T14:05:33.207Z,52.10
2017-07-02T14:08:01.645Z,51.90
2017-07-02T14:10:31.047Z,48.90
2017-07-02T14:12:59.426Z,49.40
2017-07-02T14:15:27.801Z,50.00
2017-07-02T14:17:56.369Z,51.00
2017-07-02T14:20:25.319Z,51.70
2017-07-02T14:22:53.697Z,51.00
2017-07-02T14:25:22.336Z,50.90
2017-07-02T14:27:50.710Z,50.50
2017-07-02T14:30:19.125Z,49.90
2017-07-02T14:32:49.827Z,47.70
2017-07-02T14:35:22.844Z,46.60
2017-07-02T14:37:51.755Z,48.20
2017-07-02T14:40:20.128Z,48.60
2017-07-02T14:42:48.507Z,48.30
2017-07-02T14:45:17.725Z,48.90
2017-07-02T14:47:46.067Z,49.10
2017-07-02T14:50:15.893Z,48.50
2017-07-02T14:52:44.613Z,47.20
2017-07-02T14:55:13.303Z,48.40
2017-07-02T14:57:41.883Z,49.00
2017-07-02T15:00:10.856Z,50.70
2017-07-02T15:02:39.307Z,49.70
2017-07-02T15:05:07.778Z,49.10
2017-07-02T15:07:37.484Z,46.10
2017-07-02T15:10:07.368Z,45.60
2017-07-02T15:12:35.853Z,43.50
2017-07-02T15:15:05.636Z,43.10
2017-07-02T15:17:34.148Z,43.20
2017-07-02T15:20:03.606Z,43.90
2017-07-02T15:22:32.269Z,44.60
2017-07-02T15:25:07.250Z,44.00
2017-07-02T15:27:36.494Z,43.20
2017-07-02T15:30:04.916Z,42.70
2017-07-02T15:32:34.453Z,43.10
2017-07-02T15:35:03.188Z,46.90
2017-07-02T15:37:32.567Z,48.20
2017-07-02T15:40:00.956Z,49.30
2017-07-02T15:42:29.396Z,50.10
2017-07-02T15:45:08.394Z,51.10
2017-07-02T15:47:37.527Z,50.70
2017-07-02T15:50:06.089Z,51.40
2017-07-02T15:52:34.606Z,52.10
2017-07-02T15:55:03.200Z,52.60
2017-07-02T15:57:31.909Z,52.90
2017-07-02T16:00:00.271Z,52.60
2017-07-02T16:02:29.549Z,52.80
2017-07-02T16:04:58.102Z,54.00
2017-07-02T16:07:26.428Z,55.10
2017-07-02T16:09:55.015Z,55.60
2017-07-02T16:12:23.356Z,56.40
2017-07-02T16:14:51.736Z,54.80
2017-07-02T16:17:22.558Z,53.60
2017-07-02T16:19:50.888Z,53.00
2017-07-02T16:22:19.399Z,52.80
2017-07-02T16:24:48.121Z,53.10
2017-07-02T16:27:16.472Z,51.90
2017-07-02T16:29:44.934Z,51.50
2017-07-02T16:32:14.227Z,51.80
2017-07-02T16:34:46.093Z,51.90
2017-07-02T16:37:14.857Z,51.70
2017-07-02T16:39:43.685Z,51.00
2017-07-02T16:42:12.121Z,50.00
2017-07-02T16:44:40.648Z,48.60
2017-07-02T16:47:11.548Z,49.00
2017-07-02T16:49:40.370Z,50.30
2017-07-02T16:52:10.898Z,50.90
2017-07-02T16:54:39.809Z,52.10
2017-07-02T16:57:08.236Z,53.40
2017-07-02T16:59:36.717Z,54.10
2017-07-02T17:02:06.803Z,54.30
2017-07-02T17:04:35.283Z,53.80
2017-07-02T17:07:04.666Z,54.20
2017-07-02T17:09:35.001Z,54.50
2017-07-02T17:12:04.364Z,54.70
2017-07-02T17:14:32.816Z,55.20
2017-07-02T17:17:01.720Z,55.90
2017-07-02T17:19:30.067Z,56.10
2017-07-02T17:21:58.455Z,56.70
2017-07-02T17:24:27.158Z,57.50
2017-07-02T17:26:55.560Z,58.10
2017-07-02T17:29:24.078Z,58.70
2017-07-02T17:31:52.777Z,58.70
2017-07-02T17:34:21.345Z,58.70
2017-07-02T17:36:51.062Z,58.20
2017-07-02T17:39:19.710Z,58.80
2017-07-02T17:41:48.287Z,59.20
2017-07-02T17:44:17.801Z,59.50
2017-07-02T17:46:48.422Z,59.50
2017-07-02T17:49:17.887Z,58.80
2017-07-02T17:51:47.921Z,58.20
2017-07-02T17:54:17.586Z,57.00
2017-07-02T17:56:50.323Z,55.60
2017-07-02T17:59:19.288Z,53.20
2017-07-02T18:01:47.799Z,51.90
2017-07-02T18:04:16.326Z,51.70
2017-07-02T18:06:46.312Z,52.20
2017-07-02T18:09:16.478Z,52.60
2017-07-02T18:11:46.748Z,52.70
2017-07-02T18:14:16.375Z,52.60
2017-07-02T18:16:47.664Z,52.30
2017-07-02T18:19:16.523Z,53.10
2017-07-02T18:21:48.133Z,53.80
2017-07-02T18:24:16.941Z,54.30
2017-07-02T18:26:46.502Z,54.90
2017-07-02T18:29:22.007Z,55.20
2017-07-02T18:31:51.223Z,55.80
2017-07-02T18:34:20.681Z,56.50
2017-07-02T18:36:50.667Z,56.70
2017-07-02T18:39:19.119Z,57.20
2017-07-02T18:41:48.571Z,58.10
2017-07-02T18:44:17.645Z,58.30
2017-07-02T18:46:47.733Z,58.80
2017-07-02T18:49:16.854Z,58.60
2017-07-02T18:51:46.692Z,58.60
2017-07-02T18:54:17.383Z,59.00
2017-07-02T18:56:46.022Z,58.80
2017-07-02T18:59:15.025Z,59.40
2017-07-02T19:01:44.822Z,59.70
2017-07-02T19:04:14.537Z,60.50
2017-07-02T19:06:44.907Z,61.20
2017-07-02T19:09:17.555Z,61.80
2017-07-02T19:11:47.113Z,62.00
2017-07-02T19:14:16.575Z,62.60
2017-07-02T19:16:45.801Z,63.00
2017-07-02T19:19:17.335Z,63.60
2017-07-02T19:21:46.306Z,64.20
2017-07-02T19:24:15.864Z,65.00
2017-07-02T19:26:45.901Z,65.10
2017-07-02T19:29:14.693Z,65.40
2017-07-02T19:31:48.024Z,65.80
2017-07-02T19:34:17.390Z,65.90
2017-07-02T19:36:51.134Z,66.00
2017-07-02T19:39:22.878Z,66.00
2017-07-02T19:41:53.260Z,65.90
2017-07-02T19:44:22.504Z,66.30
2017-07-02T19:46:51.417Z,66.40
2017-07-02T19:49:21.269Z,66.60
2017-07-02T19:51:51.327Z,66.90
2017-07-02T19:54:20.571Z,68.00
2017-07-02T19:56:50.553Z,67.60
2017-07-02T19:59:19.594Z,68.20
2017-07-02T20:01:48.463Z,68.60
2017-07-02T20:04:17.418Z,68.70
2017-07-02T20:06:47.259Z,68.80
2017-07-02T20:09:15.819Z,68.90
2017-07-02T20:11:44.921Z,68.90
2017-07-02T20:14:13.570Z,69.00
2017-07-02T20:16:42.206Z,69.10
2017-07-02T20:19:11.764Z,69.20
2017-07-02T20:21:40.263Z,69.90
2017-07-02T20:24:10.626Z,69.70
2017-07-02T20:26:40.441Z,70.00
2017-07-02T20:29:10.648Z,70.20
2017-07-02T20:31:39.600Z,70.20
2017-07-02T20:34:09.848Z,70.00
2017-07-02T20:36:39.114Z,70.30
2017-07-02T20:39:08.274Z,70.30
2017-07-02T20:41:38.107Z,70.40
2017-07-02T20:44:07.971Z,70.30
2017-07-02T20:46:37.427Z,70.80
2017-07-02T20:49:06.475Z,71.10
2017-07-02T20:51:35.657Z,71.60
2017-07-02T20:54:05.401Z,72.00
2017-07-02T20:56:35.077Z,72.40
2017-07-02T20:59:03.577Z,72.60
2017-07-02T21:01:32.787Z,73.00
2017-07-02T21:04:01.508Z,73.40
2017-07-02T21:06:29.898Z,73.50
2017-07-02T21:08:58.348Z,73.90
2017-07-02T21:11:28.057Z,74.00
2017-07-02T21:13:56.837Z,74.00
2017-07-02T21:16:28.694Z,74.00
2017-07-02T21:18:58.409Z,74.20
2017-07-02T21:21:26.971Z,74.50
2017-07-02T21:23:56.577Z,74.60
2017-07-02T21:26:25.398Z,74.70
2017-07-02T21:28:55.044Z,74.60
2017-07-02T21:31:24.820Z,74.80
2017-07-02T21:33:55.868Z,74.70
2017-07-02T21:36:24.731Z,74.70
2017-07-02T21:38:53.308Z,75.00
2017-07-02T21:41:22.054Z,75.10
2017-07-02T21:43:50.684Z,75.10
2017-07-02T21:46:19.655Z,75.30
2017-07-02T21:48:49.698Z,75.50
2017-07-02T21:51:18.414Z,75.40
2017-07-02T21:53:48.018Z,75.70
2017-07-02T21:56:18.469Z,75.70
2017-07-02T21:58:47.155Z,75.90
2017-07-02T22:01:17.126Z,76.20
2017-07-02T22:03:47.815Z,76.30
2017-07-02T22:06:17.074Z,76.40
2017-07-02T22:08:46.033Z,76.70
2017-07-02T22:11:16.162Z,76.60
2017-07-02T22:13:45.291Z,76.90
2017-07-02T22:16:15.214Z,77.00
2017-07-02T22:18:44.919Z,77.10
2017-07-02T22:21:14.132Z,77.40
2017-07-02T22:23:42.924Z,76.80
2017-07-02T22:26:12.263Z,76.50
2017-07-02T22:28:41.846Z,76.60
2017-07-02T22:31:11.126Z,76.50
2017-07-02T22:33:41.541Z,76.70
2017-07-02T22:36:11.631Z,76.90
2017-07-02T22:38:41.440Z,77.20
2017-07-02T22:41:11.292Z,77.40
2017-07-02T22:43:41.518Z,77.40
2017-07-02T22:46:11.026Z,77.60
2017-07-02T22:48:40.011Z,77.80
2017-07-02T22:51:08.935Z,77.80
2017-07-02T22:53:37.647Z,78.00
2017-07-02T22:56:06.812Z,78.70
2017-07-02T22:58:35.171Z,78.20
2017-07-02T23:01:03.499Z,78.40
2017-07-02T23:03:31.986Z,78.60
2017-07-02T23:06:00.419Z,78.70
2017-07-02T23:08:28.772Z,78.80
2017-07-02T23:10:57.385Z,79.00
2017-07-02T23:13:26.725Z,79.10
2017-07-02T23:15:55.100Z,79.30
2017-07-02T23:18:23.745Z,79.30
2017-07-02T23:20:52.125Z,79.60
2017-07-02T23:23:20.501Z,79.60
2017-07-02T23:25:48.984Z,79.70
2017-07-02T23:28:17.310Z,79.90
2017-07-02T23:30:45.671Z,80.10
2017-07-02T23:33:14.731Z,80.20
2017-07-02T23:35:43.061Z,80.50
2017-07-02T23:38:11.387Z,80.60
2017-07-02T23:40:40.006Z,80.80
2017-07-02T23:43:08.348Z,81.00
2017-07-02T23:45:36.704Z,81.10
2017-07-02T23:48:05.389Z,81.10
2017-07-02T23:50:33.708Z,81.20
2017-07-02T23:53:02.067Z,81.20
2017-07-02T23:55:30.734Z,81.30
2017-07-02T23:57:59.089Z,81.50
